Abraham Lincoln Capital Airport
KSPI : now visible

Airfield :











YOU CAN JOIN US ON...

 
LOGIN :

Register | Disclaimer

   EN    FR    IT 

 









Legend :    VFR   Marginal VFR   IFR   Intensive IFR   Very Intensive IFR
Visi :
Ceiling :
>= 8 km
>= 3000ft
5 to 8 km
1000 to 3000 ft
1500m to 5 km
500 to 1000 ft
800 to 1500m
200 to 500 ft
< 800m
< 200 ft
Symbols :   Thunderstorms  Fog  Heavy snow  Heavy precipitations  Wind > 20 kt






- Airport Elevation : 598 ft
- IATA code : SPI


KSPI - Abraham Lincoln Capital

CURRENT METAR :
  • 110352Z AUTO 27017G25KT 8SM OVC006 09/08 A2931 RMK AO2 SLP925 T00890083

EXPIRED METARs :
  • 110252Z 28012KT 7SM BKN006 OVC015 09/09 A2930 RMK AO2 RAE0155 SLP922 P0000 60004 T00890089 55002
  • 110152Z 25014G21KT 6SM -RA BR OVC005 09/09 A2929 RMK AO2 SLP917 P0003 T00940089
  • 110140Z 22012G20KT 2 1/2SM -RA BR OVC005 09/08 A2928 RMK AO2 P0003 T00890083
  • 110133Z 21013G24KT 3SM -RA BR OVC007 08/08 A2929 RMK AO2 P0003 T00830083

TAF KSPI
Valid from the 11 at 02:00 until the 12 at 00:00 UTC


110206Z 1102/1124 26014G22KT 2SM -SHRA BR OVC005
FM111200 28016G28KT 5SM -SHRA BR OVC009
FM111700 28015G25KT P6SM VCSH OVC012
FM112200 29011G21KT P6SM BKN035
KZKC FIR / North America



MET'MAP, your aeronautical weather chart ! - Copyright ORBIFLY December 2007 - Disclaimer

ORBIFLY MET'MAP TEAM :

Programming & Development : Alexandra Zaïnal
Concept & original design : Baudouin d'Aumeries
Assistance for programming : Marc-Olivier Méhu
Technical & hardware support : Manuel Goepfert

Contact : metmap@orbifly.com




SOURCES & CREDITS :

   NOAA       Earth
Advisory